createdAt,value
2023-12-04T00:01:29.204Z,6.50
2023-12-04T00:03:59.465Z,5.23
2023-12-04T00:06:27.857Z,4.60
2023-12-04T00:08:56.350Z,4.60
2023-12-04T00:11:26.213Z,6.07
2023-12-04T00:13:55.025Z,5.83
2023-12-04T00:16:23.481Z,4.80
2023-12-04T00:18:51.993Z,6.17
2023-12-04T00:21:20.396Z,5.87
2023-12-04T00:23:48.828Z,5.20
2023-12-04T00:26:17.512Z,3.63
2023-12-04T00:28:47.232Z,5.43
2023-12-04T00:31:15.678Z,5.30
2023-12-04T00:33:44.081Z,5.10
2023-12-04T00:36:13.178Z,5.63
2023-12-04T00:38:41.612Z,5.03
2023-12-04T00:41:09.998Z,4.87
2023-12-04T00:43:38.559Z,5.70
2023-12-04T00:46:08.719Z,4.63
2023-12-04T00:48:37.213Z,5.40
2023-12-04T00:51:05.908Z,6.53
2023-12-04T00:53:34.336Z,5.23
2023-12-04T00:56:03.134Z,5.70
2023-12-04T00:58:31.437Z,4.10
2023-12-04T01:01:00.856Z,4.87
2023-12-04T01:03:34.291Z,5.13
2023-12-04T01:06:03.700Z,4.67
2023-12-04T01:08:32.080Z,4.93
2023-12-04T01:11:00.499Z,4.67
2023-12-04T01:13:28.900Z,4.90
2023-12-04T01:15:57.412Z,5.50
2023-12-04T01:18:25.920Z,4.93
2023-12-04T01:20:55.849Z,4.67
2023-12-04T01:23:24.274Z,4.73
2023-12-04T01:25:52.658Z,5.40
2023-12-04T01:28:21.090Z,4.43
2023-12-04T01:30:49.538Z,4.23
2023-12-04T01:33:18.048Z,3.70
2023-12-04T01:35:46.546Z,3.63
2023-12-04T01:38:16.492Z,4.60
2023-12-04T01:40:44.951Z,6.13
2023-12-04T01:43:13.398Z,4.40
2023-12-04T01:45:41.891Z,5.40
2023-12-04T01:48:10.886Z,4.27
2023-12-04T01:50:39.757Z,4.50
2023-12-04T01:53:08.271Z,4.13
2023-12-04T01:55:39.802Z,4.37
2023-12-04T01:58:08.668Z,3.90
2023-12-04T02:00:37.104Z,4.77
2023-12-04T02:03:05.748Z,4.17
2023-12-04T02:05:34.392Z,4.10
2023-12-04T02:08:03.293Z,4.83
2023-12-04T02:10:31.720Z,5.67
2023-12-04T02:13:02.345Z,4.87
2023-12-04T02:15:30.851Z,4.80
2023-12-04T02:17:59.567Z,4.20
2023-12-04T02:20:34.351Z,5.27
2023-12-04T02:23:04.225Z,5.17
2023-12-04T02:25:37.385Z,4.77
2023-12-04T02:28:08.664Z,4.70
2023-12-04T02:30:38.733Z,5.00
2023-12-04T02:33:08.351Z,5.50
2023-12-04T02:35:37.991Z,6.30
2023-12-04T02:38:06.554Z,6.30
2023-12-04T02:40:36.659Z,4.53
2023-12-04T02:43:05.255Z,4.30
2023-12-04T02:45:33.772Z,4.60
2023-12-04T02:48:03.221Z,6.30
2023-12-04T02:50:31.732Z,6.00
2023-12-04T02:53:00.134Z,6.10
2023-12-04T02:55:28.696Z,5.67
2023-12-04T02:57:58.440Z,5.40
2023-12-04T03:00:26.765Z,5.97
2023-12-04T03:02:55.423Z,5.60
2023-12-04T03:05:23.796Z,7.30
2023-12-04T03:07:52.199Z,5.50
2023-12-04T03:10:20.580Z,6.60
2023-12-04T03:12:49.113Z,5.40
2023-12-04T03:15:18.932Z,5.23
2023-12-04T03:17:47.402Z,5.10
2023-12-04T03:20:15.943Z,5.67
2023-12-04T03:22:44.423Z,5.30
2023-12-04T03:25:12.955Z,4.53
2023-12-04T03:27:41.493Z,5.93
2023-12-04T03:30:10.431Z,4.80
2023-12-04T03:32:40.289Z,5.53
2023-12-04T03:35:08.853Z,6.57
2023-12-04T03:37:37.224Z,9.60
2023-12-04T03:40:05.928Z,5.60
2023-12-04T03:42:34.411Z,6.63
2023-12-04T03:45:03.007Z,4.30
2023-12-04T03:47:31.529Z,4.80
2023-12-04T03:50:01.699Z,5.37
2023-12-04T03:52:30.121Z,4.57
2023-12-04T03:54:58.953Z,4.63
2023-12-04T03:57:27.320Z,5.77
2023-12-04T03:59:55.954Z,5.00
2023-12-04T04:02:24.878Z,6.17
2023-12-04T04:04:53.642Z,6.60
2023-12-04T04:07:23.716Z,5.30
2023-12-04T04:09:52.186Z,5.27
2023-12-04T04:12:20.742Z,6.10
2023-12-04T04:14:49.121Z,6.37
2023-12-04T04:17:17.689Z,5.17
2023-12-04T04:19:46.284Z,6.33
2023-12-04T04:22:14.818Z,5.63
2023-12-04T04:24:44.599Z,5.70
2023-12-04T04:27:12.983Z,6.07
2023-12-04T04:29:41.428Z,5.50
2023-12-04T04:32:11.310Z,5.20
2023-12-04T04:34:40.684Z,5.00
2023-12-04T04:37:09.185Z,6.60
2023-12-04T04:39:37.660Z,5.60
2023-12-04T04:42:07.892Z,6.60
2023-12-04T04:44:36.307Z,7.87
2023-12-04T04:47:04.803Z,5.47
2023-12-04T04:49:33.350Z,6.90
2023-12-04T04:52:01.871Z,6.50
2023-12-04T04:54:33.651Z,8.30
2023-12-04T04:57:02.284Z,7.70
2023-12-04T04:59:33.144Z,5.47
2023-12-04T05:02:01.606Z,6.43
2023-12-04T05:04:30.196Z,5.90
2023-12-04T05:06:59.262Z,7.53
2023-12-04T05:09:27.803Z,8.33
2023-12-04T05:11:56.377Z,7.50
2023-12-04T05:14:24.790Z,4.67
2023-12-04T05:16:54.531Z,5.23
2023-12-04T05:19:22.929Z,5.47
2023-12-04T05:21:51.409Z,4.70
2023-12-04T05:24:19.849Z,5.77
2023-12-04T05:26:48.240Z,7.03
2023-12-04T05:29:16.638Z,7.50
2023-12-04T05:31:45.086Z,5.80
2023-12-04T05:34:15.131Z,8.90
2023-12-04T05:36:43.590Z,7.17
2023-12-04T05:39:11.967Z,7.40
2023-12-04T05:41:40.281Z,7.23
2023-12-04T05:44:08.768Z,7.10
2023-12-04T05:46:37.142Z,8.43
2023-12-04T05:49:05.889Z,7.40
2023-12-04T05:51:35.921Z,7.53
2023-12-04T05:54:04.348Z,6.80
2023-12-04T05:56:32.731Z,6.67
2023-12-04T05:59:01.148Z,8.00
2023-12-04T06:01:29.636Z,5.63
2023-12-04T06:03:58.139Z,8.67
2023-12-04T06:06:26.641Z,7.13
2023-12-04T06:08:56.412Z,6.87
2023-12-04T06:11:24.870Z,6.70
2023-12-04T06:13:53.259Z,6.07
2023-12-04T06:16:21.667Z,7.17
2023-12-04T06:18:50.182Z,7.27
2023-12-04T06:21:18.606Z,8.13
2023-12-04T06:23:47.150Z,7.63
2023-12-04T06:26:18.536Z,8.23
2023-12-04T06:28:47.173Z,8.83
2023-12-04T06:31:16.292Z,7.20
2023-12-04T06:33:45.002Z,7.03
2023-12-04T06:36:14.913Z,5.60
2023-12-04T06:38:43.685Z,6.57
2023-12-04T06:41:12.860Z,7.03
2023-12-04T06:43:42.932Z,5.47
2023-12-04T06:46:11.883Z,8.43
2023-12-04T06:48:40.647Z,4.80
2023-12-04T06:51:09.924Z,5.43
2023-12-04T06:53:38.298Z,6.17
2023-12-04T06:56:07.272Z,6.60
2023-12-04T06:58:35.744Z,7.40
2023-12-04T07:01:05.794Z,6.67
2023-12-04T07:03:34.298Z,6.67
2023-12-04T07:06:02.709Z,6.43
2023-12-04T07:08:31.113Z,5.30
2023-12-04T07:10:59.698Z,5.20
2023-12-04T07:13:28.037Z,7.00
2023-12-04T07:15:56.456Z,5.90
2023-12-04T07:18:26.415Z,5.80
2023-12-04T07:20:54.870Z,4.60
2023-12-04T07:23:26.482Z,4.43
2023-12-04T07:25:56.318Z,4.43
2023-12-04T07:28:25.417Z,6.50
2023-12-04T07:30:53.943Z,4.90
2023-12-04T07:33:22.447Z,6.37
2023-12-04T07:35:52.263Z,11.67
2023-12-04T07:38:20.634Z,8.63
2023-12-04T07:40:49.024Z,8.80
2023-12-04T07:43:17.502Z,9.17
2023-12-04T07:45:46.045Z,9.00
2023-12-04T07:48:14.597Z,9.20
2023-12-04T07:50:43.126Z,7.77
2023-12-04T07:53:14.436Z,8.20
2023-12-04T07:55:44.785Z,10.57
2023-12-04T07:58:13.150Z,11.00
2023-12-04T08:00:41.798Z,7.77
2023-12-04T08:03:10.213Z,7.93
2023-12-04T08:05:38.699Z,5.90
2023-12-04T08:08:07.207Z,8.33
2023-12-04T08:10:37.301Z,8.67
2023-12-04T08:13:06.392Z,8.20
2023-12-04T08:15:34.707Z,7.03
2023-12-04T08:18:03.835Z,7.90
2023-12-04T08:20:39.341Z,9.63
2023-12-04T08:23:08.966Z,12.60
2023-12-04T08:25:40.078Z,8.13
2023-12-04T08:28:10.410Z,10.60
2023-12-04T08:30:39.101Z,9.60
2023-12-04T08:33:07.786Z,7.07
2023-12-04T08:35:36.261Z,6.70
2023-12-04T08:38:04.986Z,6.43
2023-12-04T08:40:33.482Z,6.17
2023-12-04T08:43:03.252Z,8.77
2023-12-04T08:45:31.701Z,6.77
2023-12-04T08:48:00.200Z,6.57
2023-12-04T08:50:28.646Z,6.27
2023-12-04T08:52:56.930Z,6.50
2023-12-04T08:55:25.440Z,9.00
2023-12-04T08:57:54.490Z,8.27
2023-12-04T09:00:24.543Z,11.27
2023-12-04T09:02:58.314Z,11.13
2023-12-04T09:05:35.006Z,8.70
2023-12-04T09:10:45.099Z,8.50
2023-12-04T09:13:23.389Z,8.30
2023-12-04T09:15:53.288Z,7.87
2023-12-04T09:18:22.028Z,6.97
2023-12-04T09:20:50.551Z,8.20
2023-12-04T09:23:19.097Z,9.50
2023-12-04T09:25:47.454Z,10.27
2023-12-04T09:28:15.736Z,10.97
2023-12-04T09:30:44.212Z,8.90
2023-12-04T09:33:14.164Z,8.30
2023-12-04T09:35:43.413Z,7.10
2023-12-04T09:38:12.739Z,6.93
2023-12-04T09:40:41.252Z,7.83
2023-12-04T09:43:09.724Z,7.60
2023-12-04T09:45:39.122Z,8.57
2023-12-04T09:48:10.795Z,6.40
2023-12-04T09:50:42.004Z,6.40
2023-12-04T09:53:14.678Z,9.57
2023-12-04T09:55:43.482Z,9.77
2023-12-04T09:58:15.415Z,7.87
2023-12-04T10:00:44.632Z,8.50
2023-12-04T10:03:13.554Z,8.30
2023-12-04T10:05:46.403Z,8.73
2023-12-04T10:08:14.817Z,11.63
2023-12-04T10:10:44.393Z,9.77
2023-12-04T10:13:13.066Z,8.83
2023-12-04T10:15:49.773Z,10.77
2023-12-04T10:18:28.549Z,9.60
2023-12-04T10:20:58.745Z,12.07
2023-12-04T10:23:39.352Z,14.20
2023-12-04T10:26:08.341Z,14.83
2023-12-04T10:28:36.848Z,15.00
2023-12-04T10:31:08.099Z,15.53
2023-12-04T10:33:36.809Z,15.60
2023-12-04T10:36:07.492Z,13.70
2023-12-04T10:38:36.147Z,14.10
2023-12-04T10:41:15.117Z,14.17
2023-12-04T10:43:57.418Z,13.17
2023-12-04T10:46:31.020Z,13.23
2023-12-04T10:49:01.369Z,13.00
2023-12-04T10:51:31.516Z,11.67
2023-12-04T10:53:59.948Z,14.00
2023-12-04T10:56:30.264Z,13.33
2023-12-04T10:59:00.683Z,14.40
2023-12-04T11:01:29.122Z,12.97
2023-12-04T11:03:59.439Z,14.60
2023-12-04T11:06:29.801Z,12.90
2023-12-04T11:09:01.486Z,12.20
2023-12-04T11:11:30.710Z,13.23
2023-12-04T11:14:01.481Z,12.33
2023-12-04T11:16:31.054Z,11.13
2023-12-04T11:19:05.956Z,11.60
2023-12-04T11:21:35.470Z,12.03
2023-12-04T11:24:07.113Z,10.90
2023-12-04T11:26:36.262Z,11.67
2023-12-04T11:29:04.889Z,11.63
2023-12-04T11:31:33.783Z,12.50
2023-12-04T11:34:05.212Z,11.63
2023-12-04T11:36:34.024Z,11.80
2023-12-04T11:39:04.313Z,12.37
2023-12-04T11:41:34.213Z,12.53
2023-12-04T11:44:02.555Z,12.37
2023-12-04T11:46:31.839Z,12.37
2023-12-04T11:49:20.435Z,10.97
2023-12-04T11:51:51.898Z,15.37
2023-12-04T11:54:24.313Z,13.33
2023-12-04T11:57:01.409Z,12.00
2023-12-04T11:59:29.989Z,16.00
2023-12-04T12:01:59.344Z,15.97
2023-12-04T12:04:30.933Z,12.40
2023-12-04T12:07:03.425Z,11.40
2023-12-04T12:09:32.316Z,11.93
2023-12-04T12:12:02.658Z,12.90
2023-12-04T12:14:31.388Z,10.60
2023-12-04T12:17:02.114Z,11.57
2023-12-04T12:19:30.710Z,13.27
2023-12-04T12:21:59.341Z,10.93
2023-12-04T12:24:28.105Z,11.27
2023-12-04T12:26:57.095Z,10.63
2023-12-04T12:29:27.707Z,12.50
2023-12-04T12:31:56.688Z,13.23
2023-12-04T12:34:25.320Z,12.87
2023-12-04T12:36:53.831Z,11.77
2023-12-04T12:39:22.417Z,12.00
2023-12-04T12:41:51.642Z,12.80
2023-12-04T12:44:20.241Z,14.90
2023-12-04T12:46:51.690Z,16.53
2023-12-04T12:49:29.420Z,16.00
2023-12-04T12:52:05.508Z,14.63
2023-12-04T12:54:35.159Z,15.60
2023-12-04T12:57:04.450Z,15.93
2023-12-04T12:59:32.866Z,15.63
2023-12-04T13:02:03.161Z,15.77
2023-12-04T13:04:37.138Z,14.87
2023-12-04T13:07:07.035Z,12.70
2023-12-04T13:09:36.696Z,11.60
2023-12-04T13:12:05.564Z,11.43
2023-12-04T13:14:34.125Z,12.47
2023-12-04T13:17:03.912Z,11.83
2023-12-04T13:19:35.579Z,11.80
2023-12-04T13:22:03.838Z,14.17
2023-12-04T13:24:32.211Z,15.17
2023-12-04T13:27:00.586Z,15.20
2023-12-04T13:29:29.018Z,13.07
2023-12-04T13:31:57.563Z,11.77
2023-12-04T13:34:27.409Z,12.67
2023-12-04T13:36:57.062Z,14.47
2023-12-04T13:39:29.080Z,17.37
2023-12-04T13:42:15.202Z,14.53
2023-12-04T13:44:43.650Z,16.00
2023-12-04T13:47:13.439Z,13.97
2023-12-04T13:49:47.281Z,14.23
2023-12-04T13:52:15.818Z,13.00
2023-12-04T13:54:48.734Z,13.43
2023-12-04T13:57:22.181Z,13.57
2023-12-04T13:59:50.561Z,13.67
2023-12-04T14:02:19.322Z,13.27
2023-12-04T14:04:50.044Z,13.90
2023-12-04T14:07:19.093Z,14.90
2023-12-04T14:09:48.300Z,15.43
2023-12-04T14:12:17.441Z,15.93
2023-12-04T14:14:45.976Z,16.30
2023-12-04T14:17:14.312Z,16.17
2023-12-04T14:19:42.969Z,14.90
2023-12-04T14:22:12.943Z,15.07
2023-12-04T14:24:41.413Z,14.17
2023-12-04T14:27:09.781Z,12.63
2023-12-04T14:29:38.346Z,12.50
2023-12-04T14:32:07.112Z,16.70
2023-12-04T14:34:35.807Z,11.33
2023-12-04T14:37:04.485Z,12.30
2023-12-04T14:39:34.310Z,12.97
2023-12-04T14:42:02.728Z,12.37
2023-12-04T14:44:31.062Z,12.90
2023-12-04T14:47:00.255Z,11.63
2023-12-04T14:49:28.578Z,12.97
2023-12-04T14:51:57.249Z,14.17
2023-12-04T14:54:38.768Z,33.87
2023-12-04T14:57:26.937Z,26.03
2023-12-04T15:00:12.272Z,15.63
2023-12-04T15:03:09.983Z,14.17
2023-12-04T15:06:07.378Z,18.00
2023-12-04T15:09:05.051Z,14.10
2023-12-04T15:11:54.532Z,18.57
2023-12-04T15:14:34.432Z,21.70
2023-12-04T15:17:18.075Z,25.17
2023-12-04T15:20:06.164Z,26.57
2023-12-04T15:22:33.801Z,44.70
2023-12-04T15:25:02.269Z,34.17
2023-12-04T15:27:29.715Z,37.57
2023-12-04T15:29:59.575Z,26.27
2023-12-04T15:32:27.148Z,20.27
2023-12-04T15:34:56.111Z,23.50
2023-12-04T15:37:24.805Z,21.13
2023-12-04T15:39:53.149Z,18.13
2023-12-04T15:42:20.631Z,17.87
2023-12-04T15:44:49.049Z,19.00
2023-12-04T15:47:21.859Z,15.03
2023-12-04T15:49:50.210Z,14.43
2023-12-04T15:52:20.099Z,14.30
2023-12-04T15:54:48.661Z,15.33
2023-12-04T15:57:17.438Z,18.43
2023-12-04T15:59:46.671Z,15.77
2023-12-04T16:02:14.839Z,16.93
2023-12-04T16:04:44.615Z,17.73
2023-12-04T16:07:13.197Z,15.10
2023-12-04T16:09:41.745Z,15.27
2023-12-04T16:12:10.816Z,12.90
2023-12-04T16:14:39.317Z,25.60
2023-12-04T16:17:08.138Z,18.53
2023-12-04T16:19:38.395Z,21.70
2023-12-04T16:22:08.462Z,18.30
2023-12-04T16:24:37.158Z,17.80
2023-12-04T16:27:07.130Z,17.80
2023-12-04T16:29:35.584Z,17.60
2023-12-04T16:32:03.992Z,16.80
2023-12-04T16:34:32.435Z,14.13
2023-12-04T16:37:01.112Z,14.87
2023-12-04T16:39:31.087Z,13.90
2023-12-04T16:41:59.817Z,14.30
2023-12-04T16:44:28.197Z,11.87
2023-12-04T16:46:57.457Z,11.00
2023-12-04T16:49:25.946Z,11.33
2023-12-04T16:51:54.334Z,11.27
2023-12-04T16:54:22.875Z,12.80
2023-12-04T16:56:52.658Z,11.47
2023-12-04T16:59:23.992Z,11.27
2023-12-04T17:01:52.258Z,15.73
2023-12-04T17:04:20.870Z,22.20
2023-12-04T17:06:49.356Z,20.00
2023-12-04T17:09:17.690Z,23.70
2023-12-04T17:11:46.094Z,24.00
2023-12-04T17:14:15.954Z,19.27
2023-12-04T17:16:44.322Z,21.30
2023-12-04T17:19:12.870Z,16.83
2023-12-04T17:21:41.701Z,18.63
2023-12-04T17:24:10.091Z,18.10
2023-12-04T17:26:38.516Z,16.67
2023-12-04T17:29:06.886Z,15.67
2023-12-04T17:31:36.712Z,15.17
2023-12-04T17:34:05.262Z,18.87
2023-12-04T17:36:33.958Z,22.63
2023-12-04T17:39:02.399Z,17.07
2023-12-04T17:41:31.173Z,16.97
2023-12-04T17:43:59.473Z,19.40
2023-12-04T17:46:28.018Z,13.77
2023-12-04T17:49:00.066Z,15.63
2023-12-04T17:51:29.718Z,13.73
2023-12-04T17:53:58.616Z,16.43
2023-12-04T17:56:27.017Z,21.20
2023-12-04T17:58:55.280Z,17.47
2023-12-04T18:01:23.818Z,16.87
2023-12-04T18:03:52.496Z,17.87
2023-12-04T18:06:29.381Z,12.10
2023-12-04T18:08:58.028Z,11.07
2023-12-04T18:11:27.111Z,15.70
2023-12-04T18:13:56.301Z,19.80
2023-12-04T18:16:26.461Z,17.90
2023-12-04T18:18:57.581Z,15.33
2023-12-04T18:21:26.514Z,15.23
2023-12-04T18:23:56.359Z,17.40
2023-12-04T18:26:24.992Z,20.80
2023-12-04T18:28:55.224Z,22.23
2023-12-04T18:31:24.579Z,25.03
2023-12-04T18:33:53.439Z,15.10
2023-12-04T18:36:21.909Z,10.27
2023-12-04T18:38:53.542Z,8.30
2023-12-04T18:41:24.369Z,8.43
2023-12-04T18:43:53.328Z,8.77
2023-12-04T18:46:22.880Z,7.50
2023-12-04T18:48:51.629Z,8.17
2023-12-04T18:51:20.465Z,8.80
2023-12-04T18:53:49.091Z,7.63
2023-12-04T18:56:17.586Z,7.40
2023-12-04T18:58:47.406Z,6.70
2023-12-04T19:01:15.775Z,7.17
2023-12-04T19:03:44.249Z,7.13
2023-12-04T19:06:13.590Z,6.77
2023-12-04T19:08:42.126Z,7.73
2023-12-04T19:11:10.863Z,10.20
2023-12-04T19:13:39.247Z,11.53
2023-12-04T19:16:09.517Z,12.87
2023-12-04T19:18:39.554Z,10.47
2023-12-04T19:21:08.430Z,10.50
2023-12-04T19:23:36.888Z,9.40
2023-12-04T19:26:05.416Z,9.43
2023-12-04T19:28:34.273Z,9.37
2023-12-04T19:31:04.975Z,9.23
2023-12-04T19:33:34.911Z,7.67
2023-12-04T19:36:06.848Z,7.53
2023-12-04T19:38:36.775Z,7.17
2023-12-04T19:41:06.612Z,11.00
2023-12-04T19:43:35.876Z,8.90
2023-12-04T19:46:05.068Z,7.60
2023-12-04T19:48:35.483Z,7.00
2023-12-04T19:51:06.017Z,40.20
2023-12-04T19:53:34.391Z,75.73
2023-12-04T19:56:02.962Z,10.87
2023-12-04T19:58:31.804Z,8.07
2023-12-04T20:01:00.279Z,7.30
2023-12-04T20:03:29.033Z,7.33
2023-12-04T20:05:59.562Z,9.63
2023-12-04T20:08:27.974Z,35.40
2023-12-04T20:10:56.321Z,11.17
2023-12-04T20:13:25.007Z,14.90
2023-12-04T20:15:53.478Z,16.73
2023-12-04T20:18:22.061Z,15.17
2023-12-04T20:20:50.630Z,8.53
2023-12-04T20:23:20.473Z,14.30
2023-12-04T20:25:48.759Z,19.93
2023-12-04T20:28:20.010Z,8.47
2023-12-04T20:30:48.989Z,9.00
2023-12-04T20:33:19.109Z,5.77
2023-12-04T20:35:47.636Z,5.90
2023-12-04T20:38:16.049Z,5.70
2023-12-04T20:40:46.060Z,13.30
2023-12-04T20:43:14.536Z,11.10
2023-12-04T20:45:45.520Z,8.47
2023-12-04T20:48:14.711Z,6.73
2023-12-04T20:50:43.295Z,9.03
2023-12-04T20:53:13.508Z,10.00
2023-12-04T20:55:41.882Z,13.13
2023-12-04T20:58:11.756Z,10.23
2023-12-04T21:00:42.936Z,9.43
2023-12-04T21:03:12.119Z,8.10
2023-12-04T21:05:40.481Z,6.40
2023-12-04T21:08:08.966Z,6.43
2023-12-04T21:10:37.531Z,7.00
2023-12-04T21:13:06.050Z,5.00
2023-12-04T21:15:36.998Z,4.67
2023-12-04T21:18:05.646Z,8.77
2023-12-04T21:20:34.634Z,7.43
2023-12-04T21:23:03.020Z,6.83
2023-12-04T21:25:31.474Z,7.00
2023-12-04T21:28:00.302Z,8.33
2023-12-04T21:30:28.801Z,7.10
2023-12-04T21:32:58.962Z,7.47
2023-12-04T21:35:27.490Z,6.33
2023-12-04T21:37:55.867Z,18.07
2023-12-04T21:40:24.580Z,18.23
2023-12-04T21:42:52.941Z,11.03
2023-12-04T21:45:22.807Z,14.37
2023-12-04T21:47:51.255Z,10.40
2023-12-04T21:50:21.224Z,10.10
2023-12-04T21:52:49.598Z,12.00
2023-12-04T21:55:18.218Z,6.90
2023-12-04T21:57:46.827Z,7.30
2023-12-04T22:00:16.166Z,7.03
2023-12-04T22:02:46.234Z,5.37
2023-12-04T22:05:15.080Z,6.67
2023-12-04T22:07:44.884Z,7.50
2023-12-04T22:10:13.113Z,8.00
2023-12-04T22:12:41.543Z,6.43
2023-12-04T22:15:10.852Z,9.47
2023-12-04T22:17:41.852Z,6.30
2023-12-04T22:20:10.439Z,26.40
2023-12-04T22:22:39.004Z,10.23
2023-12-04T22:25:09.679Z,8.93
2023-12-04T22:27:38.227Z,13.90
2023-12-04T22:30:07.563Z,19.40
2023-12-04T22:32:36.133Z,13.63
2023-12-04T22:35:04.680Z,13.33
2023-12-04T22:37:33.233Z,6.63
2023-12-04T22:40:01.811Z,5.37
2023-12-04T22:42:31.731Z,7.10
2023-12-04T22:45:00.692Z,8.70
2023-12-04T22:47:29.332Z,8.73
2023-12-04T22:49:57.877Z,15.03
2023-12-04T22:52:27.124Z,11.13
2023-12-04T22:54:55.611Z,12.30
2023-12-04T22:57:26.049Z,9.33
2023-12-04T22:59:56.108Z,7.83
2023-12-04T23:02:25.418Z,9.80
2023-12-04T23:04:54.591Z,11.63
2023-12-04T23:07:23.811Z,12.57
2023-12-04T23:09:52.316Z,10.00
2023-12-04T23:12:20.930Z,8.27
2023-12-04T23:14:49.420Z,6.60
2023-12-04T23:17:19.410Z,9.10
2023-12-04T23:19:47.795Z,9.07
2023-12-04T23:22:16.145Z,10.77
2023-12-04T23:24:44.567Z,8.57
2023-12-04T23:27:13.939Z,8.60
2023-12-04T23:29:43.257Z,10.47
2023-12-04T23:32:11.688Z,12.97
2023-12-04T23:34:41.610Z,9.57
2023-12-04T23:37:10.082Z,9.07
2023-12-04T23:39:38.590Z,7.00
2023-12-04T23:42:07.492Z,8.50
2023-12-04T23:44:36.234Z,6.70
2023-12-04T23:47:04.661Z,7.93
2023-12-04T23:49:33.046Z,5.97
2023-12-04T23:52:02.861Z,11.00
2023-12-04T23:54:31.234Z,7.63
2023-12-04T23:57:00.816Z,4.80
2023-12-04T23:59:29.376Z,5.80
